X  Sluiten METAR luchtvaart weer gegevens      EBBR Brussels Airport
Temperatuur
14°C Temperatuur
11°C Dauwpunt
82% Vochtigheid



Wind
27 KM/U
17 MPH
8 M/S
15 KTS



230°
ZW
Huidig weer

Lichte Motregen Lichte Motregen
Luchtdruk 1016.92 (hPa) - 30.03 (inHg)
Zicht 6.2 (mijl) - 10 (km)
Vliegveld
Vliegveld code EBBR

Locatie : Brussels Airport
Afstand: 14 (km)

Metar:
EBBR 300420Z 23015KT 9999 -DZ FEW014 SCT017 BKN022 14/11 Q1017 TEMPO BKN012

Tijd: 10-30-2020 05:20 CET